Time;durP1;ratioP1;P1;durP2;ratioP2;P2;SDS_P1;SDS_P2;PMS_P1;PMS_P2;Temp;Humidity;BMP_temperature;BMP_pressure;BME280_temperature;BME280_humidity;BME280_pressure;Samples;Min_cycle;Max_cycle;Signal;HPM_P1;HPM_P2
2023/06/04 00:00:21;;;;;;;4.10;2.10;;;;;;;11.47;71.37;101986.97;4979937;28;20066;-88
2023/06/04 00:02:46;;;;;;;4.17;2.20;;;;;;;11.47;69.78;102000.41;4991445;28;20297;-88
2023/06/04 00:05:12;;;;;;;6.63;2.33;;;;;;;11.43;71.12;101999.22;4986795;28;20043;-88
2023/06/04 00:07:37;;;;;;;4.97;2.17;;;;;;;11.38;70.97;101983.00;4982486;28;20109;-88
2023/06/04 00:10:04;;;;;;;2.70;1.80;;;;;;;11.43;71.53;101985.81;4987632;28;20061;-88
2023/06/04 00:12:29;;;;;;;4.50;2.20;;;;;;;11.39;72.05;101992.69;4971410;28;20030;-88
2023/06/04 00:14:55;;;;;;;2.50;1.90;;;;;;;11.33;71.29;101981.84;4970638;28;20097;-88
2023/06/04 00:17:20;;;;;;;3.20;2.10;;;;;;;11.32;73.02;101988.25;4977923;28;20409;-88
2023/06/04 00:19:45;;;;;;;3.25;1.95;;;;;;;11.25;73.25;101978.69;4988964;28;20039;-88
2023/06/04 00:22:11;;;;;;;3.27;1.60;;;;;;;11.23;73.17;101981.63;4978031;28;20062;-88
2023/06/04 00:24:40;;;;;;;5.57;1.60;;;;;;;11.23;73.48;101987.00;4974442;28;20106;-89
2023/06/04 00:27:09;;;;;;;2.35;1.85;;;;;;;11.15;73.42;101976.59;4971596;28;20236;-89
2023/06/04 00:29:34;;;;;;;2.10;1.53;;;;;;;11.16;74.96;101983.59;4989640;28;20037;-89
2023/06/04 00:32:00;;;;;;;5.00;1.60;;;;;;;11.10;76.01;101988.03;4989323;28;20289;-89
2023/06/04 00:34:27;;;;;;;7.97;1.67;;;;;;;11.08;75.84;101981.28;4980058;28;20030;-89
2023/06/04 00:36:52;;;;;;;3.70;1.60;;;;;;;11.08;76.08;101989.31;4970525;28;20026;-89
2023/06/04 00:39:17;;;;;;;4.43;1.63;;;;;;;11.01;76.00;101986.75;4991263;28;20030;-89
2023/06/04 00:41:43;;;;;;;4.17;1.70;;;;;;;10.90;76.11;101983.00;4991453;28;20391;-89
2023/06/04 00:44:08;;;;;;;5.00;1.80;;;;;;;10.86;77.62;101979.97;4986513;28;20107;-89
2023/06/04 00:46:35;;;;;;;3.33;1.38;;;;;;;10.86;78.35;101985.31;4969446;28;20171;-89
2023/06/04 00:49:01;;;;;;;5.05;1.50;;;;;;;10.87;79.77;101978.09;4981471;28;20037;-89
2023/06/04 00:51:30;;;;;;;4.10;1.40;;;;;;;10.81;79.94;101981.69;4988134;28;20035;-89
2023/06/04 00:53:56;;;;;;;2.88;1.50;;;;;;;10.82;79.71;101984.16;4974705;28;20038;-89
2023/06/04 00:56:21;;;;;;;2.00;1.27;;;;;;;10.80;79.90;101980.06;4986347;28;20138;-90
2023/06/04 00:58:47;;;;;;;1.95;1.40;;;;;;;10.80;80.63;101988.09;4991099;28;20085;-88
2023/06/04 01:01:22;;;;;;;5.07;1.60;;;;;;;10.74;80.36;101977.28;5011085;28;20023;-86
2023/06/04 01:03:51;;;;;;;3.88;1.45;;;;;;;10.66;80.93;101984.84;4977628;28;20556;-87
2023/06/04 01:06:28;;;;;;;5.07;1.50;;;;;;;10.61;80.44;101982.81;4991173;28;20072;-88
2023/06/04 01:08:57;;;;;;;4.45;1.60;;;;;;;10.52;83.23;101986.91;5001370;28;20118;-87
2023/06/04 01:11:34;;;;;;;3.40;1.50;;;;;;;10.46;81.49;101988.63;4976319;28;20038;-87
2023/06/04 01:14:02;;;;;;;4.32;1.55;;;;;;;10.45;83.18;101992.34;4974246;28;20125;-87
2023/06/04 01:16:34;;;;;;;4.28;1.40;;;;;;;10.35;83.55;101979.47;4985273;28;20037;-87
2023/06/04 01:19:02;;;;;;;3.47;1.40;;;;;;;10.30;84.00;101988.19;4990965;28;20035;-86
2023/06/04 01:21:30;;;;;;;4.77;1.60;;;;;;;10.30;84.82;101992.72;4960675;28;20779;-87
2023/06/04 01:24:00;;;;;;;6.88;1.70;;;;;;;10.27;84.37;101999.38;4991124;28;20030;-87
2023/06/04 01:26:30;;;;;;;4.20;1.55;;;;;;;10.22;83.02;101990.38;4952640;28;20108;-87
2023/06/04 01:28:57;;;;;;;3.25;1.58;;;;;;;10.21;84.48;101994.91;4954388;28;20098;-89
2023/06/04 01:31:23;;;;;;;2.95;1.58;;;;;;;10.12;85.29;101990.91;4984810;28;20479;-87
2023/06/04 01:33:57;;;;;;;3.47;1.42;;;;;;;10.04;84.43;101984.03;4989249;28;20102;-87
2023/06/04 01:36:23;;;;;;;4.20;1.55;;;;;;;10.03;86.34;101992.25;4987357;28;20481;-87
2023/06/04 01:38:48;;;;;;;4.20;1.83;;;;;;;9.94;87.25;101994.44;4978994;28;20059;-87
2023/06/04 01:41:13;;;;;;;4.77;1.77;;;;;;;9.89;87.70;101986.25;4989798;28;20579;-87
2023/06/04 01:43:39;;;;;;;3.08;1.48;;;;;;;9.89;87.78;101997.78;4982330;28;20425;-87
2023/06/04 01:46:04;;;;;;;3.17;1.70;;;;;;;9.83;87.97;101982.59;4980260;28;20034;-88
2023/06/04 01:48:31;;;;;;;2.10;1.60;;;;;;;9.77;88.63;101973.63;4990299;28;20041;-87
2023/06/04 01:50:57;;;;;;;3.15;1.50;;;;;;;9.75;90.27;101981.06;4993575;28;20036;-87
2023/06/04 01:53:22;;;;;;;2.77;1.40;;;;;;;9.74;90.77;101983.97;4993198;28;20038;-87
2023/06/04 01:55:49;;;;;;;3.22;1.50;;;;;;;9.76;90.29;101979.22;4988351;28;20031;-87
2023/06/04 01:58:17;;;;;;;4.67;1.67;;;;;;;9.71;90.80;101979.84;4979670;28;20030;-87
2023/06/04 02:00:43;;;;;;;4.43;1.80;;;;;;;9.66;90.29;101982.41;4982769;28;20050;-86
2023/06/04 02:03:08;;;;;;;3.15;1.58;;;;;;;9.61;90.17;101984.94;4986389;28;20061;-87
2023/06/04 02:05:34;;;;;;;3.53;1.50;;;;;;;9.64;90.17;101987.16;4982871;28;20045;-87
2023/06/04 02:08:01;;;;;;;6.45;1.65;;;;;;;9.51;90.48;101972.88;4986542;28;20599;-88
2023/06/04 02:10:27;;;;;;;4.45;1.70;;;;;;;9.46;91.87;101983.44;4985921;28;20505;-87
2023/06/04 02:13:02;;;;;;;4.57;1.70;;;;;;;9.44;90.76;101984.69;4984803;28;20030;-87
2023/06/04 02:15:27;;;;;;;5.63;1.83;;;;;;;9.40;92.06;101978.97;4989445;28;20026;-89
2023/06/04 02:18:16;;;;;;;3.23;1.40;;;;;;;9.37;90.44;101977.56;5007933;28;20096;-91
2023/06/04 02:20:43;;;;;;;3.80;1.83;;;;;;;9.33;94.52;101973.69;5008763;28;20035;-90
2023/06/04 02:23:08;;;;;;;2.42;1.45;;;;;;;9.24;94.30;101967.81;4981147;28;20027;-91
2023/06/04 02:25:34;;;;;;;2.90;1.60;;;;;;;9.23;94.17;101968.00;4987910;28;20042;-92
2023/06/04 02:27:59;;;;;;;2.90;1.60;;;;;;;9.21;93.23;101965.56;4996935;28;20035;-93
2023/06/04 02:30:25;;;;;;;2.80;1.60;;;;;;;9.18;94.00;101971.34;4978642;28;20538;-91
2023/06/04 02:32:50;;;;;;;3.43;1.83;;;;;;;9.20;94.42;101971.94;4984777;28;20038;-92
2023/06/04 02:35:17;;;;;;;3.43;2.00;;;;;;;9.19;94.93;101980.22;4988101;28;20122;-92
2023/06/04 02:37:43;;;;;;;2.73;1.63;;;;;;;9.13;93.31;101978.41;4985875;28;20297;-89
2023/06/04 02:40:09;;;;;;;4.07;1.90;;;;;;;9.03;94.44;101974.38;4995464;28;20026;-89
2023/06/04 02:42:35;;;;;;;2.72;1.40;;;;;;;9.05;94.45;101993.69;4996590;28;20117;-89
2023/06/04 02:45:00;;;;;;;2.53;1.37;;;;;;;8.92;94.29;101989.28;4991179;28;20057;-89
2023/06/04 02:47:27;;;;;;;5.00;1.67;;;;;;;8.93;94.78;101988.25;4995014;28;20042;-89
2023/06/04 02:49:52;;;;;;;7.25;1.85;;;;;;;8.82;96.01;101977.44;4993203;28;20038;-89
2023/06/04 02:52:17;;;;;;;5.57;1.80;;;;;;;8.83;96.02;101981.75;4975105;28;20031;-89
2023/06/04 02:54:43;;;;;;;5.57;1.80;;;;;;;8.72;96.44;101977.91;4977386;28;20281;-89
2023/06/04 02:57:08;;;;;;;2.27;1.77;;;;;;;8.74;96.58;101981.19;4993441;28;20109;-89
2023/06/04 02:59:33;;;;;;;2.83;1.70;;;;;;;8.71;97.04;101984.28;4983103;28;20031;-88
2023/06/04 03:02:00;;;;;;;5.90;1.90;;;;;;;8.67;96.86;101991.09;4992482;28;20025;-88
2023/06/04 03:04:26;;;;;;;2.23;1.60;;;;;;;8.60;97.69;101988.47;4990453;28;20816;-89
2023/06/04 03:06:57;;;;;;;2.97;1.75;;;;;;;8.54;97.20;101987.50;4988583;28;20057;-89
2023/06/04 03:09:22;;;;;;;3.60;1.40;;;;;;;8.51;98.47;101989.75;4989171;28;20034;-89
2023/06/04 03:11:47;;;;;;;3.20;1.60;;;;;;;8.44;98.24;101987.94;4990561;28;20042;-89
2023/06/04 03:14:14;;;;;;;2.20;1.50;;;;;;;8.45;99.22;101994.91;4981403;28;20080;-89
2023/06/04 03:16:39;;;;;;;3.00;1.48;;;;;;;8.41;98.80;101990.19;4956697;28;20509;-89
2023/06/04 03:19:05;;;;;;;4.80;1.80;;;;;;;8.40;99.69;101985.91;4989221;28;20022;-89
2023/06/04 03:21:30;;;;;;;3.73;1.77;;;;;;;8.34;98.44;101987.56;4992730;28;20285;-89
2023/06/04 03:23:56;;;;;;;6.23;1.57;;;;;;;8.36;98.89;101990.84;4991943;28;20030;-90
2023/06/04 03:26:21;;;;;;;5.00;2.03;;;;;;;8.32;100.00;101993.13;4967849;28;20098;-89
2023/06/04 03:28:46;;;;;;;3.43;2.10;;;;;;;8.36;100.00;101990.03;4990425;28;20034;-89
2023/06/04 03:31:12;;;;;;;2.70;1.73;;;;;;;8.35;100.00;101989.19;4974188;28;20172;-89
2023/06/04 03:33:37;;;;;;;5.37;2.00;;;;;;;8.36;100.00;101990.03;4974192;28;20038;-89
2023/06/04 03:36:03;;;;;;;2.97;1.73;;;;;;;8.34;99.32;101992.91;4980692;28;20074;-90
2023/06/04 03:38:28;;;;;;;5.30;1.70;;;;;;;8.33;100.00;101989.44;4986381;28;20026;-89
2023/06/04 03:40:54;;;;;;;3.10;1.77;;;;;;;8.32;100.00;101993.13;5000661;28;20050;-89
2023/06/04 03:43:20;;;;;;;2.63;1.83;;;;;;;8.33;100.00;101993.94;4993450;28;20046;-89
2023/06/04 03:45:45;;;;;;;5.10;1.80;;;;;;;8.30;100.00;101981.03;4974512;28;20042;-89
2023/06/04 03:48:10;;;;;;;3.37;1.93;;;;;;;8.31;99.62;101993.31;4998697;28;20022;-89
2023/06/04 03:50:36;;;;;;;2.00;1.50;;;;;;;8.37;99.93;101986.34;4980177;28;20030;-89
2023/06/04 03:53:04;;;;;;;3.33;1.70;;;;;;;8.40;100.00;101994.72;4973195;28;20035;-89
2023/06/04 03:55:32;;;;;;;2.63;1.80;;;;;;;8.34;100.00;101987.56;4975355;28;20027;-89
2023/06/04 03:57:57;;;;;;;2.58;1.80;;;;;;;8.39;100.00;101986.94;4970572;28;20044;-89
2023/06/04 04:00:23;;;;;;;3.83;1.70;;;;;;;8.40;100.00;101991.25;4992692;28;20027;-90
2023/06/04 04:02:50;;;;;;;2.27;1.83;;;;;;;8.46;100.00;101990.38;4970563;28;20317;-89
2023/06/04 04:05:15;;;;;;;3.83;1.80;;;;;;;8.55;100.00;101998.97;4975093;28;20497;-89
2023/06/04 04:07:41;;;;;;;1.83;1.63;;;;;;;8.57;99.78;101996.91;4981888;28;20033;-89
2023/06/04 04:10:08;;;;;;;3.70;1.70;;;;;;;8.58;99.52;101988.69;5001185;28;20049;-89
2023/06/04 04:12:33;;;;;;;2.37;1.70;;;;;;;8.62;100.00;101995.22;5006145;28;20014;-90
2023/06/04 04:14:58;;;;;;;2.72;1.52;;;;;;;8.61;99.78;101984.78;4998516;28;20019;-90
2023/06/04 04:17:24;;;;;;;3.23;1.80;;;;;;;8.72;98.90;101989.41;4999866;28;20038;-90
2023/06/04 04:19:49;;;;;;;4.40;1.70;;;;;;;8.72;98.08;101984.06;4988817;28;20014;-88
2023/06/04 04:22:17;;;;;;;3.23;2.03;;;;;;;8.79;99.41;102002.72;4984716;28;20023;-90
2023/06/04 04:24:43;;;;;;;5.05;2.10;;;;;;;8.89;99.26;101991.53;5007665;28;20069;-89
2023/06/04 04:27:13;;;;;;;4.40;1.88;;;;;;;8.92;98.60;101989.28;4987133;28;20030;-86
2023/06/04 04:29:39;;;;;;;4.15;2.17;;;;;;;9.06;98.66;101997.19;4980484;28;20142;-89
2023/06/04 04:32:10;;;;;;;2.88;1.88;;;;;;;9.12;97.76;101998.16;5010019;28;20038;-89
2023/06/04 04:37:08;;;;;;;5.60;1.97;;;;;;;9.12;97.10;101974.94;4991816;28;20689;-89
2023/06/04 04:39:51;;;;;;;2.92;1.77;;;;;;;9.06;96.92;101955.22;4992997;28;20026;-90
2023/06/04 04:43:25;;;;;;;3.63;1.75;;;;;;;9.47;95.69;102001.13;4989547;28;20092;-85
2023/06/04 04:46:15;;;;;;;4.97;1.88;;;;;;;9.74;94.31;102003.50;4971851;28;20042;-85
2023/06/04 04:48:42;;;;;;;3.40;1.90;;;;;;;9.96;93.95;102006.53;4971714;28;20043;-86
2023/06/04 04:51:07;;;;;;;4.90;1.90;;;;;;;10.69;91.21;102006.63;4978253;28;20018;-85
2023/06/04 04:53:36;;;;;;;4.97;1.80;;;;;;;12.16;85.64;102015.81;4954853;28;20144;-84
2023/06/04 04:56:01;;;;;;;4.85;1.90;;;;;;;13.51;76.96;102005.38;4999308;28;20077;-85
2023/06/04 04:58:26;;;;;;;6.80;2.43;;;;;;;14.58;71.26;102003.31;5002159;28;20153;-84
2023/06/04 05:00:52;;;;;;;2.40;1.50;;;;;;;15.51;66.48;102007.53;4980742;28;20088;-84
2023/06/04 05:03:17;;;;;;;3.70;1.67;;;;;;;16.17;62.46;101998.03;4999908;28;20037;-85
2023/06/04 05:05:43;;;;;;;5.40;1.90;;;;;;;16.81;59.01;102016.78;4991337;28;20045;-85
2023/06/04 05:08:08;;;;;;;3.20;1.70;;;;;;;17.29;56.47;102018.34;4983390;28;20553;-85
2023/06/04 05:10:35;;;;;;;3.35;1.90;;;;;;;17.79;54.94;102021.19;4983687;28;20043;-85
2023/06/04 05:13:01;;;;;;;2.58;2.08;;;;;;;18.11;52.39;102015.38;4989467;28;20030;-85
2023/06/04 05:15:27;;;;;;;5.20;2.10;;;;;;;18.24;51.30;102021.25;4995806;28;20034;-85
2023/06/04 05:17:53;;;;;;;3.33;2.00;;;;;;;18.17;51.02;102018.84;4995911;28;20466;-86
2023/06/04 05:20:20;;;;;;;3.65;2.22;;;;;;;18.18;50.14;102020.47;4991541;28;21307;-86
2023/06/04 05:22:46;;;;;;;4.90;2.57;;;;;;;18.58;49.42;102029.44;4986149;28;20030;-87
2023/06/04 05:25:11;;;;;;;2.47;2.10;;;;;;;18.96;49.00;102026.16;4986041;28;20373;-84
2023/06/04 05:27:37;;;;;;;3.60;2.20;;;;;;;19.07;47.94;102018.72;4999283;28;20046;-90
2023/06/04 05:30:03;;;;;;;5.78;2.13;;;;;;;19.26;47.00;102031.59;4998609;28;20126;-92
2023/06/04 05:32:30;;;;;;;4.28;2.08;;;;;;;19.55;46.43;102022.56;4992814;28;20019;-91
2023/06/04 05:34:56;;;;;;;5.47;2.10;;;;;;;19.46;45.93;102025.94;4986536;28;20034;-91
2023/06/04 05:37:23;;;;;;;4.07;2.00;;;;;;;19.48;45.71;102023.75;4998150;28;20077;-93
2023/06/04 05:39:49;;;;;;;2.60;2.23;;;;;;;19.46;45.62;102019.69;4981949;28;20356;-93
2023/06/04 05:42:15;;;;;;;3.63;2.47;;;;;;;19.39;45.41;102030.09;4979766;28;20462;-90
2023/06/04 05:44:40;;;;;;;3.40;2.50;;;;;;;19.09;45.80;102011.13;4988599;28;20034;-90
2023/06/04 05:47:06;;;;;;;3.92;2.50;;;;;;;19.02;46.25;102011.44;4997033;28;20455;-90
2023/06/04 05:49:32;;;;;;;3.80;2.27;;;;;;;19.00;46.38;102015.53;4998978;28;20661;-92
2023/06/04 05:51:59;;;;;;;4.57;1.85;;;;;;;18.59;46.93;102019.38;4996364;28;20046;-91
2023/06/04 05:54:24;;;;;;;7.78;2.47;;;;;;;18.11;47.24;102023.50;4995477;28;20038;-91
2023/06/04 05:56:49;;;;;;;4.23;2.30;;;;;;;17.93;49.47;102019.50;4998163;28;20516;-90
2023/06/04 05:59:15;;;;;;;3.20;2.10;;;;;;;17.80;49.76;102011.97;4979232;28;20073;-92
2023/06/04 06:01:40;;;;;;;2.33;2.10;;;;;;;17.66;50.37;102026.13;4983239;28;20031;-94
2023/06/04 06:04:05;;;;;;;4.47;2.30;;;;;;;17.35;50.50;102031.63;4982177;28;20470;-92
2023/06/04 06:06:31;;;;;;;3.45;2.50;;;;;;;16.95;51.53;102017.06;4980074;28;20039;-92
2023/06/04 06:08:56;;;;;;;3.50;2.50;;;;;;;16.71;52.80;102027.59;4981319;28;20127;-93
2023/06/04 06:11:21;;;;;;;3.43;2.63;;;;;;;16.52;53.72;102024.59;4985293;28;20046;-92
2023/06/04 06:13:46;;;;;;;4.17;2.60;;;;;;;16.38;53.07;102025.13;4984166;28;20030;-93
2023/06/04 06:23:59;;;;;;;6.93;2.60;;;;;;;15.73;56.43;102007.34;5305303;23;20063;-90
2023/06/04 06:26:25;;;;;;;6.60;2.75;;;;;;;15.82;58.22;102014.94;4955813;28;20150;-90
2023/06/04 06:28:50;;;;;;;4.23;2.73;;;;;;;15.95;58.13;102027.16;4962470;28;20066;-88
2023/06/04 06:31:16;;;;;;;3.87;2.73;;;;;;;15.85;57.17;102036.03;4959433;28;20553;-87
2023/06/04 06:33:41;;;;;;;3.65;2.63;;;;;;;15.78;56.59;102036.28;4955932;29;20023;-90
2023/06/04 06:36:08;;;;;;;5.53;3.07;;;;;;;15.63;58.54;102030.78;4961017;29;20470;-95
2023/06/04 06:38:33;;;;;;;5.05;2.83;;;;;;;15.70;58.67;102040.28;4958160;28;20071;-94
2023/06/04 06:40:58;;;;;;;4.83;2.70;;;;;;;15.69;56.26;102041.34;4957702;29;20035;-93
2023/06/04 06:43:24;;;;;;;5.87;2.57;;;;;;;15.72;57.91;102040.00;4955833;29;20093;-95
2023/06/04 06:45:49;;;;;;;4.23;2.90;;;;;;;15.74;57.12;102033.28;4954551;29;20031;-89
2023/06/04 06:48:14;;;;;;;5.47;2.70;;;;;;;15.89;56.99;102046.06;4955310;29;20286;-89
2023/06/04 06:50:39;;;;;;;7.40;2.67;;;;;;;15.92;57.83;102038.50;4955726;29;20046;-88
2023/06/04 06:53:06;;;;;;;5.67;2.60;;;;;;;15.94;56.71;102034.47;4956327;29;20023;-90
2023/06/04 06:55:31;;;;;;;3.97;2.80;;;;;;;15.94;56.57;102039.88;4955317;28;20102;-89
2023/06/04 06:57:58;;;;;;;3.83;2.77;;;;;;;16.04;56.70;102045.31;4954271;28;20531;-88
2023/06/04 07:00:24;;;;;;;3.65;2.67;;;;;;;16.26;55.21;102047.00;4952055;28;20491;-90
2023/06/04 07:02:50;;;;;;;3.50;2.70;;;;;;;16.28;54.21;102049.44;4954791;29;20081;-89
2023/06/04 07:05:17;;;;;;;2.80;2.30;;;;;;;16.41;54.06;102053.53;4955574;29;20035;-91
2023/06/04 07:07:43;;;;;;;5.20;2.67;;;;;;;16.49;53.93;102058.44;4954807;29;20027;-90
2023/06/04 07:10:09;;;;;;;5.60;2.70;;;;;;;16.63;52.45;102058.69;4954164;28;20087;-89
2023/06/04 07:12:34;;;;;;;4.60;2.60;;;;;;;16.73;53.44;102053.31;4955966;29;20023;-91
2023/06/04 07:14:59;;;;;;;5.00;2.37;;;;;;;16.83;53.38;102066.03;4956760;28;20314;-93
2023/06/04 07:17:25;;;;;;;5.00;2.87;;;;;;;16.89;52.78;102066.84;4955798;28;20098;-89
2023/06/04 07:19:50;;;;;;;5.30;2.40;;;;;;;17.11;51.04;102058.47;4954886;28;20122;-89
2023/06/04 07:22:15;;;;;;;5.50;2.70;;;;;;;17.04;51.02;102053.34;4953904;29;20031;-89
2023/06/04 07:24:41;;;;;;;5.97;2.50;;;;;;;17.16;49.71;102060.38;4955916;28;20479;-89
2023/06/04 07:27:14;;;;;;;3.05;2.40;;;;;;;17.23;49.92;102050.06;4952339;28;20058;-88
2023/06/04 07:29:42;;;;;;;4.28;2.67;;;;;;;17.38;50.07;102060.06;4954615;28;20029;-89
2023/06/04 07:32:07;;;;;;;3.75;2.60;;;;;;;17.49;48.27;102067.09;4956519;29;20035;-90
2023/06/04 07:34:33;;;;;;;3.43;2.50;;;;;;;17.53;47.98;102057.31;4956483;28;20035;-89
2023/06/04 07:36:58;;;;;;;4.87;2.87;;;;;;;17.56;45.94;102053.25;4954773;29;20550;-89
2023/06/04 07:39:25;;;;;;;3.87;2.13;;;;;;;17.56;44.74;102045.13;4954120;29;20042;-88
2023/06/04 07:41:50;;;;;;;5.63;2.17;;;;;;;17.76;46.03;102046.97;4957243;28;20046;-86
2023/06/04 07:44:16;;;;;;;3.55;2.30;;;;;;;17.98;46.11;102059.38;4971701;28;20063;-87
2023/06/04 07:46:44;;;;;;;5.63;2.33;;;;;;;18.11;44.40;102057.94;4956874;29;20035;-88
2023/06/04 07:49:09;;;;;;;5.22;2.38;;;;;;;18.28;43.92;102058.38;4960530;28;20039;-88
2023/06/04 07:51:35;;;;;;;3.97;2.00;;;;;;;18.41;43.18;102050.75;4954105;28;20071;-94
2023/06/04 08:02:36;;;;;;;3.67;2.30;;;;;;;18.71;41.49;102027.16;4996507;28;20614;-93
2023/06/04 08:05:17;;;;;;;4.73;2.10;;;;;;;19.08;42.51;102052.16;5002571;23;20086;-95
2023/06/04 08:11:05;;;;;;;2.17;1.85;;;;;;;19.03;37.93;102023.94;5047429;23;20057;-95
2023/06/04 08:16:23;;;;;;;5.32;1.83;;;;;;;19.35;38.61;102054.34;6097923;23;20029;-95
2023/06/04 08:18:57;;;;;;;2.30;1.70;;;;;;;19.27;38.13;102025.06;4958674;29;20062;-93
2023/06/04 08:37:11;;;;;;;5.68;1.80;;;;;;;20.22;36.07;102033.41;5222927;23;20049;-91
2023/06/04 08:46:53;;;;;;;5.88;1.70;;;;;;;20.85;35.68;102055.91;4953021;28;20039;-94
2023/06/04 08:49:20;;;;;;;4.97;1.40;;;;;;;20.66;32.15;102036.03;4973904;28;20212;-94
2023/06/04 08:51:56;;;;;;;1.95;1.60;;;;;;;20.60;32.98;102027.16;4963483;29;20083;-96
2023/06/04 08:54:38;;;;;;;3.17;1.40;;;;;;;20.85;34.53;102036.00;5282524;23;20009;-94
2023/06/04 08:57:17;;;;;;;1.97;1.43;;;;;;;21.07;32.95;102059.06;4994109;28;20809;-96
2023/06/04 09:03:37;;;;;;;1.60;1.40;;;;;;;21.52;32.60;102078.44;4999185;28;20041;-95
2023/06/04 09:06:06;;;;;;;2.00;1.40;;;;;;;21.54;33.20;102056.31;4980359;28;20144;-95
2023/06/04 09:08:59;;;;;;;2.03;1.55;;;;;;;21.90;33.04;102075.53;4977865;28;20031;-96
2023/06/04 09:14:03;;;;;;;2.95;1.40;;;;;;;21.93;29.48;102053.06;5588529;23;20087;-89
2023/06/04 09:16:36;;;;;;;5.43;1.40;;;;;;;21.91;29.20;102077.09;4960184;28;20031;-90
2023/06/04 09:19:02;;;;;;;2.50;1.60;;;;;;;22.00;30.93;102079.13;4963814;28;20035;-90
2023/06/04 09:21:27;;;;;;;3.63;1.40;;;;;;;22.11;30.53;102085.19;4960777;29;20384;-89
2023/06/04 09:23:53;;;;;;;2.23;1.30;;;;;;;22.11;30.67;102079.72;4951834;29;20039;-88
2023/06/04 09:26:18;;;;;;;2.73;1.50;;;;;;;22.17;29.30;102083.97;4949476;28;20298;-90
2023/06/04 09:28:45;;;;;;;4.93;1.70;;;;;;;22.17;30.87;102076.56;4956614;29;20031;-90
2023/06/04 09:31:16;;;;;;;2.33;1.25;;;;;;;22.19;29.70;102077.06;4953434;29;20067;-90
2023/06/04 09:33:46;;;;;;;1.92;1.20;;;;;;;22.41;30.73;102071.94;4956652;28;20094;-94
2023/06/04 09:36:12;;;;;;;1.95;1.30;;;;;;;22.56;29.75;102077.06;4961962;29;20300;-92
2023/06/04 09:38:38;;;;;;;2.50;1.37;;;;;;;22.54;29.86;102071.94;4962406;29;20228;-94
2023/06/04 09:41:06;;;;;;;1.80;1.40;;;;;;;22.40;28.51;102068.44;4931192;29;20396;-94
2023/06/04 09:43:34;;;;;;;2.75;1.40;;;;;;;22.61;30.29;102068.78;4959742;29;20027;-94
2023/06/04 09:46:13;;;;;;;2.47;1.38;;;;;;;22.64;30.26;102068.16;4956376;28;20050;-88
2023/06/04 09:48:39;;;;;;;2.72;1.27;;;;;;;22.67;30.47;102064.81;4956046;28;20055;-90
2023/06/04 09:51:13;;;;;;;5.70;1.30;;;;;;;22.77;30.06;102061.00;4974133;28;20420;-89
2023/06/04 09:53:39;;;;;;;3.75;1.48;;;;;;;22.76;29.19;102064.03;4966362;28;20666;-90
2023/06/04 09:56:10;;;;;;;3.75;1.23;;;;;;;22.72;29.30;102066.59;4950808;29;20490;-90
2023/06/04 09:58:37;;;;;;;2.42;1.40;;;;;;;22.76;29.09;102053.13;4938315;29;20031;-91
2023/06/04 10:01:04;;;;;;;1.63;1.20;;;;;;;22.84;29.30;102060.56;4942823;28;20031;-90
2023/06/04 10:03:32;;;;;;;5.07;1.30;;;;;;;22.96;28.50;102055.34;4956996;29;20313;-90
2023/06/04 10:06:01;;;;;;;2.90;1.05;;;;;;;23.24;29.51;102065.31;4953588;28;20050;-89
2023/06/04 10:08:32;;;;;;;2.28;1.40;;;;;;;23.17;28.96;102049.34;4957392;29;20426;-91
2023/06/04 10:11:03;;;;;;;2.47;1.30;;;;;;;23.12;28.16;102053.00;4961759;28;20027;-88
2023/06/04 10:13:38;;;;;;;1.65;1.13;;;;;;;23.25;27.37;102056.00;5009044;23;20045;-89
2023/06/04 10:16:06;;;;;;;3.45;1.25;;;;;;;23.19;28.36;102052.56;4963222;28;20027;-89
2023/06/04 10:18:33;;;;;;;3.20;1.40;;;;;;;23.17;28.67;102045.81;4966319;28;20403;-88
2023/06/04 10:20:59;;;;;;;4.00;1.40;;;;;;;23.37;27.05;102061.66;4962874;28;20150;-89
2023/06/04 10:23:24;;;;;;;5.20;1.48;;;;;;;23.54;27.48;102060.13;4967862;28;20033;-87
2023/06/04 10:25:52;;;;;;;1.63;1.33;;;;;;;23.50;28.01;102057.22;4970823;28;20030;-87
2023/06/04 10:28:20;;;;;;;5.38;1.27;;;;;;;23.95;28.32;102069.09;4981616;28;20078;-87
2023/06/04 10:30:45;;;;;;;2.35;1.20;;;;;;;24.19;27.67;102072.19;4988419;28;20035;-87
2023/06/04 10:33:11;;;;;;;2.00;1.73;;;;;;;24.20;27.82;102062.06;4986813;28;20087;-86
2023/06/04 10:35:37;;;;;;;1.88;1.40;;;;;;;24.01;26.86;102065.91;4979277;28;20080;-86
2023/06/04 10:38:10;;;;;;;2.92;1.30;;;;;;;24.02;27.43;102047.53;4982936;28;20039;-87
2023/06/04 10:40:37;;;;;;;2.23;1.27;;;;;;;24.06;27.57;102066.88;4983918;28;20501;-87
2023/06/04 10:43:13;;;;;;;2.90;1.30;;;;;;;24.06;27.42;102066.88;4993040;28;21322;-93
2023/06/04 10:45:39;;;;;;;3.15;1.20;;;;;;;24.12;27.94;102071.03;5023348;28;20030;-93
2023/06/04 10:48:09;;;;;;;5.28;1.35;;;;;;;24.26;27.60;102065.44;5018264;28;20018;-92
2023/06/04 10:50:57;;;;;;;2.05;1.30;;;;;;;24.33;27.97;102061.06;5018802;28;20026;-92
2023/06/04 10:53:23;;;;;;;1.95;1.35;;;;;;;24.29;26.87;102054.63;5000937;28;20050;-92
2023/06/04 10:55:49;;;;;;;2.65;1.50;;;;;;;24.19;27.55;102052.22;5030394;28;20026;-93
2023/06/04 10:58:16;;;;;;;1.55;1.30;;;;;;;24.27;27.17;102056.91;4998683;28;20372;-94
2023/06/04 11:00:43;;;;;;;2.13;1.30;;;;;;;24.53;27.33;102063.50;5003902;28;20042;-96
2023/06/04 11:03:12;;;;;;;1.67;1.20;;;;;;;24.40;24.57;102070.75;5004657;28;20266;-94
2023/06/04 11:05:43;;;;;;;5.80;1.30;;;;;;;24.44;25.33;102055.28;5005579;28;20062;-96
2023/06/04 11:08:10;;;;;;;2.17;1.30;;;;;;;24.66;25.31;102057.03;4989438;28;20031;-92
2023/06/04 11:10:45;;;;;;;1.60;1.30;;;;;;;24.60;24.84;102053.66;4991031;28;20023;-94
2023/06/04 11:13:11;;;;;;;1.67;1.15;;;;;;;24.84;25.97;102052.34;4995103;28;20391;-91
2023/06/04 11:15:48;;;;;;;1.83;1.25;;;;;;;24.88;24.71;102047.03;4978762;28;20459;-93
2023/06/04 11:18:23;;;;;;;4.20;1.45;;;;;;;24.87;24.88;102037.97;4986418;28;20081;-93
2023/06/04 11:20:58;;;;;;;4.63;1.30;;;;;;;25.01;25.59;102047.97;4985417;28;20089;-93
2023/06/04 11:23:23;;;;;;;2.38;1.40;;;;;;;24.95;24.87;102045.38;5007174;28;20106;-93
2023/06/04 11:25:52;;;;;;;1.90;1.33;;;;;;;24.88;24.67;102039.59;5007473;28;20046;-92
2023/06/04 11:28:21;;;;;;;2.00;1.40;;;;;;;25.15;25.76;102034.84;5003789;28;20030;-94
2023/06/04 11:31:02;;;;;;;2.05;1.30;;;;;;;25.29;25.51;102034.59;5006972;28;20157;-93
2023/06/04 11:33:28;;;;;;;4.05;1.38;;;;;;;25.41;24.99;102047.63;4999715;28;20042;-93
2023/06/04 11:35:54;;;;;;;1.38;1.20;;;;;;;25.20;25.73;102031.88;5001319;28;20029;-93
2023/06/04 11:38:19;;;;;;;2.07;1.10;;;;;;;25.24;25.67;102041.06;4984561;28;20035;-92
2023/06/04 11:41:12;;;;;;;2.08;1.20;;;;;;;25.19;25.13;102044.03;4983515;28;20055;-94
2023/06/04 11:43:39;;;;;;;2.10;1.50;;;;;;;25.05;24.86;102036.00;4997181;28;20062;-93
2023/06/04 11:46:08;;;;;;;1.80;1.50;;;;;;;25.04;25.89;102028.09;4984668;28;20290;-94
2023/06/04 11:48:33;;;;;;;3.72;1.25;;;;;;;25.31;26.04;102039.75;5004213;28;20078;-95
2023/06/04 11:51:05;;;;;;;3.38;1.60;;;;;;;25.59;25.98;102036.56;5001570;28;20010;-95
2023/06/04 11:53:31;;;;;;;2.15;1.40;;;;;;;25.63;24.63;102027.38;4999648;28;20007;-94
2023/06/04 11:55:56;;;;;;;2.67;1.48;;;;;;;25.76;26.14;102030.97;5009527;28;20029;-95
2023/06/04 11:58:21;;;;;;;2.40;1.77;;;;;;;25.84;24.92;102032.06;5000423;28;20087;-94
2023/06/04 12:00:48;;;;;;;3.73;1.70;;;;;;;25.93;24.49;102023.78;5010503;28;20094;-94
2023/06/04 12:03:13;;;;;;;1.65;1.20;;;;;;;26.04;24.75;102030.47;5002474;28;20033;-95
2023/06/04 12:05:39;;;;;;;2.30;1.37;;;;;;;26.06;23.90;102030.13;5016786;28;20026;-92
2023/06/04 12:08:06;;;;;;;1.90;1.70;;;;;;;25.82;23.93;102032.41;5011499;28;20030;-94
2023/06/04 12:10:40;;;;;;;4.75;1.40;;;;;;;25.62;25.53;102031.25;4999347;28;20041;-94
2023/06/04 12:13:06;;;;;;;3.88;1.60;;;;;;;25.97;26.08;102021.94;5005918;28;20030;-94
2023/06/04 12:15:31;;;;;;;1.87;1.37;;;;;;;26.17;26.55;102028.63;5012191;28;20077;-95
2023/06/04 12:17:57;;;;;;;1.83;1.50;;;;;;;26.16;24.74;102024.25;4984674;28;20043;-92
2023/06/04 12:20:36;;;;;;;2.37;1.60;;;;;;;26.04;26.23;102024.97;4993813;28;20110;-92
2023/06/04 12:23:03;;;;;;;1.67;1.58;;;;;;;26.21;26.01;102023.25;4982981;28;20050;-92